createdAt,value
2022-07-25T16:45:01.860Z,94094.50
2022-07-25T16:47:28.815Z,94094.06
2022-07-25T16:49:55.714Z,94103.75
2022-07-25T16:52:23.722Z,94088.00
2022-07-25T16:54:50.611Z,94102.22
2022-07-25T16:57:17.440Z,94108.78
2022-07-25T16:59:44.436Z,94115.34
2022-07-25T17:02:11.507Z,94110.19
2022-07-25T17:04:38.419Z,94100.78
2022-07-25T17:07:05.367Z,94093.97
2022-07-25T17:09:32.880Z,94108.50
2022-07-25T17:11:59.685Z,94112.19
2022-07-25T17:14:30.027Z,94106.19
2022-07-25T17:16:57.386Z,94117.03
2022-07-25T17:19:24.178Z,94123.22
2022-07-25T17:21:51.069Z,94144.88
2022-07-25T17:24:17.859Z,94121.41
2022-07-25T17:26:44.850Z,94117.03
2022-07-25T17:29:14.160Z,94125.91
2022-07-25T17:31:41.192Z,94131.16
2022-07-25T17:34:08.703Z,94135.03
2022-07-25T17:36:36.784Z,94135.81
2022-07-25T17:39:04.032Z,94146.41
2022-07-25T17:41:31.050Z,94147.94
2022-07-25T17:43:57.849Z,94145.72
2022-07-25T17:46:24.796Z,94144.47
2022-07-25T17:48:51.764Z,94149.31
2022-07-25T17:51:18.655Z,94134.41
2022-07-25T17:53:45.516Z,94139.72
2022-07-25T17:56:12.310Z,94144.50
2022-07-25T17:58:39.169Z,94148.31
2022-07-25T18:01:10.334Z,94150.06
2022-07-25T18:03:37.980Z,94157.88
2022-07-25T18:06:05.398Z,94161.53
2022-07-25T18:08:35.259Z,94161.94
2022-07-25T18:11:03.738Z,94161.28
2022-07-25T18:13:30.667Z,94163.91
2022-07-25T18:15:57.770Z,94155.69
2022-07-25T18:18:24.710Z,94162.88
2022-07-25T18:20:51.825Z,94160.41
2022-07-25T18:23:18.644Z,94167.63
2022-07-25T18:25:45.780Z,94179.13
2022-07-25T18:28:12.753Z,94176.78
2022-07-25T18:30:39.762Z,94188.88
2022-07-25T18:33:07.463Z,94173.88
2022-07-25T18:35:34.541Z,94182.56
2022-07-25T18:38:02.774Z,94177.66
2022-07-25T18:40:30.213Z,94176.69
2022-07-25T18:42:57.007Z,94171.75
2022-07-25T18:45:24.085Z,94181.44
2022-07-25T18:47:51.574Z,94176.00
2022-07-25T18:50:20.485Z,94176.31
2022-07-25T18:52:47.633Z,94181.63
2022-07-25T18:55:15.375Z,94187.38
2022-07-25T18:57:42.199Z,94182.84
2022-07-25T19:00:10.873Z,94195.47
2022-07-25T19:02:37.889Z,94194.63
2022-07-25T19:05:05.972Z,94207.75
2022-07-25T19:07:34.025Z,94202.41
2022-07-25T19:10:01.790Z,94209.66
2022-07-25T19:12:29.312Z,94215.16
2022-07-25T19:14:56.553Z,94217.16
2022-07-25T19:17:24.106Z,94222.84
2022-07-25T19:19:55.192Z,94227.16
2022-07-25T19:22:28.248Z,94240.16
2022-07-25T19:24:55.113Z,94245.09
2022-07-25T19:27:25.250Z,94250.84
2022-07-25T19:29:52.390Z,94258.88
2022-07-25T19:32:19.358Z,94264.66
2022-07-25T19:34:46.708Z,94269.53
2022-07-25T19:37:13.865Z,94283.66
2022-07-25T19:39:40.647Z,94283.56
2022-07-25T19:42:09.904Z,94286.13
2022-07-25T19:44:37.258Z,94294.81
2022-07-25T19:47:07.306Z,94290.91
2022-07-25T19:49:39.689Z,94309.03
2022-07-25T19:52:08.435Z,94319.97
2022-07-25T19:54:35.663Z,94324.13
2022-07-25T19:57:02.650Z,94327.97
2022-07-25T19:59:29.677Z,94336.63
2022-07-25T20:01:56.557Z,94344.47
2022-07-25T20:04:23.836Z,94342.94
2022-07-25T20:06:50.873Z,94341.34
2022-07-25T20:09:17.936Z,94334.41
2022-07-25T20:11:44.876Z,94334.66
2022-07-25T20:14:11.776Z,94348.41
2022-07-25T20:16:39.600Z,94353.78
2022-07-25T20:19:09.597Z,94355.66
2022-07-25T20:21:38.416Z,94360.25
2022-07-25T20:24:06.371Z,94364.81
2022-07-25T20:26:33.438Z,94362.13
2022-07-25T20:29:00.390Z,94369.94
2022-07-25T20:31:27.407Z,94362.44
2022-07-25T20:33:54.568Z,94366.72
2022-07-25T20:36:21.922Z,94360.25
2022-07-25T20:38:48.794Z,94349.47
2022-07-25T20:41:16.022Z,94353.50
2022-07-25T20:43:43.500Z,94367.81
2022-07-25T20:46:10.438Z,94358.41
2022-07-25T20:48:37.395Z,94370.50
2022-07-25T20:51:04.636Z,94358.91
2022-07-25T20:53:31.483Z,94372.94
2022-07-25T20:55:58.627Z,94381.25
2022-07-25T20:58:25.527Z,94391.50
2022-07-25T21:00:53.079Z,94400.91
2022-07-25T21:03:20.069Z,94397.97
2022-07-25T21:05:46.969Z,94398.22
2022-07-25T21:08:13.739Z,94401.41
2022-07-25T21:10:40.628Z,94404.59
2022-07-25T21:13:07.689Z,94420.47
2022-07-25T21:15:35.132Z,94437.69
2022-07-25T21:18:02.103Z,94439.25
2022-07-25T21:20:29.050Z,94437.66
2022-07-25T21:22:55.908Z,94436.28
2022-07-25T21:25:22.829Z,94440.81
2022-07-25T21:27:50.003Z,94434.81
2022-07-25T21:30:16.857Z,94436.81
2022-07-25T21:32:45.026Z,94439.22
2022-07-25T21:35:12.106Z,94455.09
2022-07-25T21:37:39.019Z,94447.25
2022-07-25T21:40:07.098Z,94456.47
2022-07-25T21:42:35.345Z,94458.56
2022-07-25T21:45:02.307Z,94451.59
2022-07-25T21:47:29.154Z,94450.81
2022-07-25T21:50:19.225Z,94466.09
2022-07-25T21:52:52.863Z,94463.06
2022-07-25T21:55:21.042Z,94468.97
2022-07-25T21:57:48.415Z,94475.63
2022-07-25T22:00:16.136Z,94459.69
2022-07-25T22:02:45.277Z,94462.69
2022-07-25T22:05:15.106Z,94466.00
2022-07-25T22:07:44.013Z,94455.78
2022-07-25T22:10:13.672Z,94465.78
2022-07-25T22:12:41.521Z,94475.41
2022-07-25T22:15:12.254Z,94470.94
2022-07-25T22:17:48.793Z,94470.44
2022-07-25T22:20:18.998Z,94488.19
2022-07-25T22:22:47.904Z,94473.97
2022-07-25T22:25:15.732Z,94475.78
2022-07-25T22:27:42.708Z,94471.19
2022-07-25T22:30:16.153Z,94480.25
2022-07-25T22:32:50.728Z,94476.28
2022-07-25T22:35:18.269Z,94477.34
2022-07-25T22:37:46.027Z,94483.50
2022-07-25T22:40:13.855Z,94488.06
2022-07-25T22:42:40.862Z,94473.41
2022-07-25T22:45:08.764Z,94485.09
2022-07-25T22:47:35.651Z,94498.78
2022-07-25T22:50:03.468Z,94507.56
2022-07-25T22:52:30.396Z,94489.06
2022-07-25T22:54:57.322Z,94495.13
2022-07-25T22:57:24.115Z,94497.81
2022-07-25T22:59:51.002Z,94500.97
2022-07-25T23:02:17.794Z,94510.13
2022-07-25T23:04:44.646Z,94507.78
2022-07-25T23:07:11.556Z,94512.84
2022-07-25T23:09:38.381Z,94500.06
2022-07-25T23:12:05.787Z,94507.13
2022-07-25T23:14:32.870Z,94526.41
2022-07-25T23:17:17.863Z,94521.66
2022-07-25T23:19:46.178Z,94530.63
2022-07-25T23:22:12.996Z,94524.94
2022-07-25T23:24:40.023Z,94531.81
2022-07-25T23:27:07.166Z,94532.34
2022-07-25T23:29:33.990Z,94535.25
2022-07-25T23:32:01.086Z,94536.03
2022-07-25T23:34:27.986Z,94540.44
2022-07-25T23:36:54.737Z,94531.44
2022-07-25T23:39:21.597Z,94540.28
2022-07-25T23:41:49.468Z,94540.06
2022-07-25T23:44:16.393Z,94523.31
2022-07-25T23:46:44.485Z,94538.13
2022-07-25T23:49:13.135Z,94524.03
2022-07-25T23:51:40.463Z,94543.56
2022-07-25T23:54:07.350Z,94537.53
2022-07-25T23:56:34.216Z,94532.31
2022-07-25T23:59:01.191Z,94546.22
